Time;durP1;ratioP1;P1;durP2;ratioP2;P2;SDS_P1;SDS_P2;PMS_P1;PMS_P2;Temp;Humidity;BMP_temperature;BMP_pressure;BME280_temperature;BME280_humidity;BME280_pressure;Samples;Min_cycle;Max_cycle;Signal;HPM_P1;HPM_P2
2023/05/19 00:04:01;;;;;;;8.68;5.30;;;24.70;60.60;;;;;;10556144;28;20067;-23
2023/05/19 00:09:05;;;;;;;9.25;4.97;;;24.60;60.30;;;;;;10571078;28;20055;-30
2023/05/19 00:14:09;;;;;;;8.25;5.07;;;24.50;60.50;;;;;;10561829;28;20449;-23
2023/05/19 00:19:12;;;;;;;8.20;5.32;;;24.50;60.40;;;;;;10564560;28;20473;-23
2023/05/19 00:24:14;;;;;;;10.50;5.78;;;24.30;60.10;;;;;;10574101;28;20086;-22
2023/05/19 00:29:17;;;;;;;9.48;5.43;;;24.30;60.00;;;;;;10563507;28;20055;-23
2023/05/19 00:34:20;;;;;;;9.40;5.47;;;24.30;60.10;;;;;;10568125;28;20071;-23
2023/05/19 00:39:22;;;;;;;9.60;5.63;;;24.20;60.20;;;;;;10566077;28;20082;-23
2023/05/19 00:44:24;;;;;;;;;;;24.10;60.50;;;;;;10562703;28;20131;-23
2023/05/19 00:49:27;;;;;;;10.32;5.97;;;24.10;60.70;;;;;;10571471;28;20027;-24
2023/05/19 00:54:29;;;;;;;10.05;5.60;;;23.90;60.00;;;;;;10567415;28;20093;-23
2023/05/19 00:59:31;;;;;;;8.20;4.53;;;23.90;60.70;;;;;;10552204;28;20048;-24
2023/05/19 01:04:36;;;;;;;;;;;23.80;60.80;;;;;;10552305;28;20139;-22
2023/05/19 01:09:38;;;;;;;8.13;4.82;;;23.80;60.30;;;;;;10557719;28;19920;-23
2023/05/19 01:14:40;;;;;;;5.68;3.65;;;23.80;61.00;;;;;;10560706;28;20472;-24
2023/05/19 01:19:56;;;;;;;7.05;3.92;;;23.70;60.40;;;;;;10563059;28;20048;-23
2023/05/19 01:25:31;;;;;;;6.65;4.13;;;23.60;60.30;;;;;;10554752;28;20070;-24
2023/05/19 01:30:37;;;;;;;10.20;5.32;;;23.50;61.00;;;;;;10484252;28;20064;-23
2023/05/19 01:35:41;;;;;;;7.65;4.65;;;23.50;59.70;;;;;;10481290;28;20140;-23
2023/05/19 01:40:44;;;;;;;8.10;4.03;;;23.40;60.20;;;;;;10474206;28;20102;-23
2023/05/19 01:45:47;;;;;;;8.93;4.72;;;23.30;60.00;;;;;;10475183;28;20055;-23
2023/05/19 01:50:50;;;;;;;5.82;3.80;;;23.20;60.40;;;;;;10459222;28;20494;-22
2023/05/19 01:55:54;;;;;;;5.82;2.88;;;23.10;60.00;;;;;;10479965;28;20451;-23
2023/05/19 02:01:05;;;;;;;7.00;3.65;;;23.10;60.60;;;;;;10470082;28;20164;-24
2023/05/19 02:06:18;;;;;;;8.10;4.53;;;23.10;60.80;;;;;;10483213;28;20637;-24
2023/05/19 02:11:25;;;;;;;7.53;4.78;;;23.00;59.90;;;;;;10468128;28;20505;-24
2023/05/19 02:16:29;;;;;;;9.15;5.18;;;22.90;60.70;;;;;;10464574;28;20084;-23
2023/05/19 02:21:31;;;;;;;14.00;5.13;;;22.80;60.20;;;;;;10467233;28;20364;-23
2023/05/19 02:26:33;;;;;;;;;;;22.80;60.30;;;;;;10488512;28;20067;-23
2023/05/19 02:31:36;;;;;;;9.13;4.73;;;22.70;60.70;;;;;;10553328;28;19979;-23
2023/05/19 02:36:40;;;;;;;9.80;4.55;;;22.70;60.40;;;;;;10553839;28;20047;-24
2023/05/19 02:41:42;;;;;;;8.65;4.65;;;22.60;60.40;;;;;;10556205;28;20047;-24
2023/05/19 02:46:45;;;;;;;8.68;4.20;;;22.50;60.30;;;;;;10546172;28;20099;-23
2023/05/19 02:51:47;;;;;;;7.05;4.20;;;22.50;60.10;;;;;;10548170;28;20525;-23
2023/05/19 02:56:48;;;;;;;5.95;4.10;;;22.40;60.00;;;;;;10563626;28;20488;-23
2023/05/19 03:15:29;;;;;;;5.65;3.35;;;22.70;58.50;;;;;;10517337;27;20110;-25
2023/05/19 03:20:31;;;;;;;4.20;2.90;;;22.40;59.80;;;;;;10482484;28;20451;-25
2023/05/19 03:25:33;;;;;;;5.03;2.97;;;22.30;60.30;;;;;;10495445;28;20135;-24
2023/05/19 03:30:36;;;;;;;8.65;3.80;;;22.20;60.50;;;;;;10482241;28;20059;-24
2023/05/19 03:35:38;;;;;;;6.45;3.47;;;22.20;59.80;;;;;;10482122;28;20485;-24
2023/05/19 03:40:40;;;;;;;6.68;3.97;;;22.10;59.90;;;;;;10469342;28;20477;-25
2023/05/19 03:45:43;;;;;;;7.53;3.92;;;22.10;60.20;;;;;;10479673;28;20048;-25
2023/05/19 03:50:45;;;;;;;4.78;3.00;;;22.10;60.00;;;;;;10480820;28;20057;-24
2023/05/19 03:55:48;;;;;;;5.95;3.65;;;22.10;59.90;;;;;;10481319;28;20126;-22
2023/05/19 04:00:51;;;;;;;5.05;2.88;;;22.00;60.40;;;;;;10476477;28;20512;-22
2023/05/19 04:05:53;;;;;;;3.90;2.70;;;22.00;60.20;;;;;;10476456;28;20047;-24
2023/05/19 04:10:55;;;;;;;5.97;3.10;;;22.00;60.10;;;;;;10480179;28;20056;-24
2023/05/19 04:15:58;;;;;;;;;;;21.80;59.80;;;;;;10483350;28;20404;-24
2023/05/19 04:21:00;;;;;;;5.93;3.67;;;21.90;60.60;;;;;;10474630;28;20019;-25
2023/05/19 04:26:02;;;;;;;4.15;2.70;;;21.80;60.10;;;;;;10457462;28;20045;-23
2023/05/19 04:31:09;;;;;;;6.22;2.95;;;21.90;59.80;;;;;;10455205;28;20056;-24
2023/05/19 04:36:12;;;;;;;5.40;2.60;;;21.90;59.60;;;;;;10450121;28;20487;-24
2023/05/19 04:41:15;;;;;;;4.65;2.22;;;21.70;60.10;;;;;;10450536;28;20100;-24
2023/05/19 04:46:23;;;;;;;2.58;1.40;;;22.10;59.50;;;;;;10441619;28;20052;-24
2023/05/19 04:51:26;;;;;;;3.30;1.80;;;21.90;59.40;;;;;;10451256;28;20448;-24
2023/05/19 04:56:28;;;;;;;3.53;2.10;;;21.90;59.30;;;;;;10435302;28;20053;-23
2023/05/19 05:01:32;;;;;;;3.78;2.13;;;21.80;59.80;;;;;;10444782;28;20555;-24
2023/05/19 05:06:37;;;;;;;5.90;2.55;;;21.90;59.60;;;;;;10451210;28;20049;-25
2023/05/19 05:11:39;;;;;;;3.17;2.13;;;21.90;59.40;;;;;;10449991;28;20055;-24
2023/05/19 05:16:43;;;;;;;3.72;2.13;;;21.90;58.80;;;;;;10454011;28;20060;-25
2023/05/19 05:21:46;;;;;;;3.72;2.10;;;21.70;59.30;;;;;;10446757;28;20585;-24
2023/05/19 05:26:48;;;;;;;3.17;2.05;;;21.80;59.30;;;;;;10451525;28;20048;-27
2023/05/19 05:31:51;;;;;;;3.30;1.98;;;21.90;59.50;;;;;;10445901;28;20143;-26
2023/05/19 05:36:53;;;;;;;3.58;1.83;;;21.80;59.50;;;;;;10443029;28;20113;-25
2023/05/19 05:41:55;;;;;;;3.03;1.75;;;21.70;59.70;;;;;;10453364;28;20050;-25
2023/05/19 05:46:58;;;;;;;3.53;1.90;;;21.80;59.10;;;;;;10450432;28;20178;-24
2023/05/19 05:52:01;;;;;;;3.38;1.88;;;21.70;59.40;;;;;;10451976;28;21031;-25
2023/05/19 05:57:04;;;;;;;3.42;1.70;;;21.80;59.20;;;;;;10451479;28;20508;-24
2023/05/19 06:02:07;;;;;;;3.22;1.50;;;21.80;59.30;;;;;;10447720;28;20452;-23
2023/05/19 06:07:09;;;;;;;2.10;1.45;;;21.70;59.20;;;;;;10451199;28;20044;-24
2023/05/19 06:12:11;;;;;;;3.33;1.45;;;21.80;58.90;;;;;;10454646;28;20083;-25
2023/05/19 06:17:14;;;;;;;3.50;1.63;;;21.90;59.20;;;;;;10444693;28;20045;-24
2023/05/19 06:22:16;;;;;;;4.18;1.52;;;21.90;58.90;;;;;;10453385;28;21492;-24
2023/05/19 06:27:18;;;;;;;;;;;21.50;59.50;;;;;;10464487;28;20408;-24
2023/05/19 06:32:21;;;;;;;2.47;1.60;;;21.30;60.30;;;;;;10447878;28;19928;-33
2023/05/19 06:37:23;;;;;;;3.22;1.60;;;21.30;60.30;;;;;;10455096;28;20048;-25
2023/05/19 06:42:25;;;;;;;4.40;2.00;;;21.30;60.60;;;;;;10433629;28;20164;-24
2023/05/19 06:47:28;;;;;;;2.78;1.73;;;21.30;60.50;;;;;;10434762;28;20763;-24
2023/05/19 06:52:30;;;;;;;6.45;2.30;;;21.10;61.00;;;;;;10450246;28;20049;-24
2023/05/19 06:57:32;;;;;;;4.93;1.83;;;20.90;58.90;;;;;;10445597;28;20509;-24
2023/05/19 07:02:35;;;;;;;3.17;1.52;;;21.10;61.50;;;;;;10433377;28;20086;-24
2023/05/19 07:07:37;;;;;;;1.95;1.50;;;21.20;60.50;;;;;;10445583;28;20131;-25
2023/05/19 07:12:39;;;;;;;4.70;1.45;;;21.80;59.50;;;;;;10447739;28;20576;-24
2023/05/19 07:17:43;;;;;;;1.40;1.13;;;21.90;58.30;;;;;;10445596;28;20071;-25
2023/05/19 07:22:44;;;;;;;2.35;1.00;;;22.00;57.90;;;;;;10448185;28;20065;-25
2023/05/19 07:27:46;;;;;;;2.33;1.10;;;22.00;58.50;;;;;;10446866;28;20049;-25
2023/05/19 07:32:49;;;;;;;1.58;0.95;;;22.50;56.90;;;;;;10444907;28;20132;-25
2023/05/19 07:37:51;;;;;;;1.75;0.80;;;22.30;57.70;;;;;;10447325;28;20632;-25
2023/05/19 07:42:53;;;;;;;;;;;22.50;57.00;;;;;;10445600;28;20764;-24
2023/05/19 07:47:56;;;;;;;2.42;1.10;;;22.40;57.20;;;;;;10437109;28;19921;-22
2023/05/19 07:52:58;;;;;;;6.50;1.42;;;22.50;56.00;;;;;;10455925;28;20165;-25
2023/05/19 07:58:00;;;;;;;1.85;1.00;;;22.30;57.20;;;;;;10446693;28;20127;-24
2023/05/19 08:03:04;;;;;;;3.03;1.42;;;22.80;56.50;;;;;;10449831;28;20056;-25
2023/05/19 08:08:10;;;;;;;6.10;1.13;;;22.50;56.70;;;;;;10447903;28;20531;-23
2023/05/19 08:13:12;;;;;;;1.92;1.10;;;22.70;56.80;;;;;;10441975;28;20064;-24
2023/05/19 08:18:15;;;;;;;;;;;22.60;56.80;;;;;;10450408;28;20045;-25
2023/05/19 08:23:17;;;;;;;1.92;0.90;;;22.50;57.30;;;;;;10455139;28;20411;-24
2023/05/19 08:28:19;;;;;;;2.30;1.00;;;22.70;56.90;;;;;;10462606;28;20132;-24
2023/05/19 09:27:49;;;;;;;3.63;1.13;;;23.30;55.70;;;;;;8519783;28;20037;-24
2023/05/19 09:32:52;;;;;;;4.50;1.13;;;23.20;55.40;;;;;;10436047;28;20052;-25
2023/05/19 09:37:55;;;;;;;3.35;1.45;;;23.10;51.70;;;;;;10450529;28;20464;-24
2023/05/19 09:42:58;;;;;;;3.45;1.15;;;23.00;55.50;;;;;;10444248;28;20106;-25
2023/05/19 09:48:07;;;;;;;3.53;1.13;;;23.20;55.30;;;;;;10449075;28;20501;-26
2023/05/19 09:53:12;;;;;;;3.38;1.08;;;23.10;55.50;;;;;;10436281;28;20045;-25
2023/05/19 09:58:19;;;;;;;3.80;1.52;;;23.20;55.70;;;;;;10459921;28;20454;-25
2023/05/19 10:03:22;;;;;;;8.82;2.05;;;22.90;56.80;;;;;;10428865;28;20045;-24
2023/05/19 10:08:26;;;;;;;5.10;1.60;;;23.20;56.00;;;;;;10454213;28;20123;-25
2023/05/19 10:13:30;;;;;;;3.50;1.58;;;23.40;55.20;;;;;;10449471;28;20045;-25
2023/05/19 10:18:34;;;;;;;2.97;1.33;;;22.90;57.30;;;;;;10440809;28;20072;-24
2023/05/19 10:23:37;;;;;;;3.55;1.40;;;23.00;58.60;;;;;;10444651;28;20106;-24
2023/05/19 10:28:44;;;;;;;7.65;3.88;;;23.50;57.50;;;;;;10449908;28;20048;-24
2023/05/19 10:34:08;;;;;;;4.25;1.67;;;22.20;61.20;;;;;;10438365;28;20068;-24
2023/05/19 10:39:17;;;;;;;6.68;2.25;;;22.50;59.70;;;;;;10442167;28;20041;-25
2023/05/19 10:44:29;;;;;;;4.95;2.28;;;22.70;60.30;;;;;;10437071;28;20053;-25
2023/05/19 10:49:34;;;;;;;6.93;2.30;;;22.60;60.60;;;;;;10443797;28;20045;-25
2023/05/19 10:54:42;;;;;;;3.53;2.13;;;22.70;62.00;;;;;;10445502;28;20476;-26
2023/05/19 10:59:45;;;;;;;4.38;1.70;;;22.80;62.20;;;;;;10438123;28;20056;-25
2023/05/19 11:04:49;;;;;;;10.80;3.63;;;23.00;61.50;;;;;;10442916;28;20721;-24
2023/05/19 11:09:52;;;;;;;5.18;2.63;;;21.90;57.80;;;;;;10439284;28;20067;-24
2023/05/19 11:14:55;;;;;;;5.15;2.40;;;22.40;60.30;;;;;;10449858;28;20087;-24
2023/05/19 11:19:58;;;;;;;6.10;2.13;;;21.80;67.50;;;;;;10434316;28;20105;-25
2023/05/19 11:25:00;;;;;;;8.07;2.45;;;22.50;60.50;;;;;;10446059;28;20146;-24
2023/05/19 11:30:10;;;;;;;;;;;22.70;56.60;;;;;;10456581;28;20084;-24
2023/05/19 11:35:13;;;;;;;8.13;2.72;;;22.70;64.70;;;;;;10448800;28;19921;-25
2023/05/19 11:40:16;;;;;;;2.90;1.75;;;23.10;64.10;;;;;;10450922;28;20045;-25
2023/05/19 11:45:24;;;;;;;10.27;2.60;;;22.90;63.60;;;;;;10457534;28;20079;-24
2023/05/19 11:50:26;;;;;;;12.68;2.42;;;23.00;60.40;;;;;;10447852;28;20045;-22
2023/05/19 11:55:28;;;;;;;5.50;2.15;;;23.30;63.70;;;;;;10463812;28;20412;-23
2023/05/19 12:00:36;;;;;;;;;;;22.90;60.90;;;;;;10447953;28;20495;-24
2023/05/19 12:05:41;;;;;;;4.88;1.60;;;24.20;60.30;;;;;;10453021;28;19920;-24
2023/05/19 12:10:42;;;;;;;7.88;2.35;;;24.50;56.70;;;;;;10453122;28;20049;-24
2023/05/19 12:15:45;;;;;;;;;;;24.10;59.40;;;;;;10457592;28;20144;-24
2023/05/19 12:20:47;;;;;;;14.35;3.08;;;24.30;59.60;;;;;;10441029;28;20355;-24
2023/05/19 12:25:49;;;;;;;;;;;23.00;57.70;;;;;;10445055;28;20457;-23
2023/05/19 12:30:53;;;;;;;6.30;2.67;;;23.70;63.00;;;;;;10453021;28;19967;-24
2023/05/19 12:35:55;;;;;;;4.43;2.03;;;23.80;53.70;;;;;;10452697;28;20147;-24
2023/05/19 12:40:58;;;;;;;;;;;24.20;65.00;;;;;;10440577;28;20136;-24
2023/05/19 12:46:11;;;;;;;7.97;2.60;;;24.00;62.10;;;;;;10442547;28;20011;-25
2023/05/19 12:51:16;;;;;;;3.40;1.63;;;23.20;69.30;;;;;;10456199;28;20059;-23
2023/05/19 12:56:18;;;;;;;3.30;2.03;;;23.40;71.80;;;;;;10468591;28;20168;-23
2023/05/19 13:01:22;;;;;;;9.13;2.42;;;24.00;60.20;;;;;;10461333;28;20127;-23
2023/05/19 13:06:24;;;;;;;5.80;2.33;;;24.00;53.70;;;;;;10447422;28;20557;-23
2023/05/19 13:11:26;;;;;;;;;;;24.40;63.40;;;;;;10447820;28;20057;-24
2023/05/19 13:16:29;;;;;;;7.88;2.13;;;24.40;53.30;;;;;;10445685;28;20011;-24
2023/05/19 13:21:31;;;;;;;8.07;1.88;;;25.10;61.80;;;;;;10455594;28;20037;-24
2023/05/19 13:26:33;;;;;;;;;;;25.50;63.30;;;;;;10446213;28;20512;-22
2023/05/19 13:31:36;;;;;;;3.63;1.63;;;25.40;63.30;;;;;;10447076;28;19929;-25
2023/05/19 13:36:38;;;;;;;3.30;1.58;;;25.60;59.10;;;;;;10456129;28;20076;-23
2023/05/19 13:41:40;;;;;;;3.90;1.30;;;25.80;57.40;;;;;;10452512;28;20047;-24
2023/05/19 13:46:43;;;;;;;8.43;1.75;;;25.90;56.10;;;;;;10438865;28;20090;-24
2023/05/19 13:51:45;;;;;;;6.43;1.60;;;25.90;56.10;;;;;;10443121;28;20052;-24
2023/05/19 13:56:47;;;;;;;2.97;1.15;;;25.60;56.20;;;;;;10436807;28;20060;-24
2023/05/19 14:01:50;;;;;;;1.73;1.00;;;26.00;54.50;;;;;;10439862;28;20045;-24
2023/05/19 14:06:52;;;;;;;4.30;1.33;;;26.20;55.00;;;;;;10444696;28;20049;-25
2023/05/19 14:11:54;;;;;;;6.43;1.73;;;25.90;52.10;;;;;;10454649;28;20070;-25
2023/05/19 14:16:58;;;;;;;8.80;1.80;;;25.60;53.90;;;;;;10450908;28;20529;-24
2023/05/19 14:22:00;;;;;;;1.98;1.20;;;26.00;53.00;;;;;;10440308;28;20094;-25
2023/05/19 14:27:01;;;;;;;6.07;1.40;;;26.10;55.00;;;;;;10441873;28;20037;-24
2023/05/19 14:32:05;;;;;;;5.43;1.30;;;26.40;54.10;;;;;;10432335;28;20482;-24
2023/05/19 14:37:07;;;;;;;5.13;0.93;;;26.60;53.40;;;;;;10444218;28;20135;-24
2023/05/19 14:42:09;;;;;;;9.38;1.95;;;26.80;53.50;;;;;;10451571;28;20098;-25
2023/05/19 14:47:13;;;;;;;6.93;1.88;;;26.80;52.00;;;;;;10435539;28;20116;-23
2023/05/19 14:52:16;;;;;;;6.55;1.65;;;27.00;52.80;;;;;;10437436;28;20049;-25
2023/05/19 14:57:18;;;;;;;5.00;1.13;;;27.10;51.80;;;;;;10447361;28;20053;-23
2023/05/19 15:02:21;;;;;;;7.20;2.38;;;27.10;52.30;;;;;;10447923;28;20075;-22
2023/05/19 15:07:23;;;;;;;6.25;1.67;;;27.30;51.90;;;;;;10444762;28;20519;-23
2023/05/19 15:12:25;;;;;;;7.72;1.92;;;27.40;52.30;;;;;;10447533;28;20044;-23
2023/05/19 15:17:28;;;;;;;9.63;3.08;;;27.50;50.60;;;;;;10446568;28;20161;-23
2023/05/19 15:22:30;;;;;;;3.97;1.30;;;27.40;53.30;;;;;;10444867;28;20547;-24
2023/05/19 15:27:32;;;;;;;4.40;1.38;;;27.50;51.50;;;;;;10452794;28;20043;-25
2023/05/19 15:32:35;;;;;;;5.85;1.73;;;27.30;51.50;;;;;;10441271;28;20132;-24
2023/05/19 15:37:37;;;;;;;3.10;1.83;;;27.40;51.00;;;;;;10444739;28;20056;-24
2023/05/19 15:42:39;;;;;;;3.95;1.63;;;27.00;51.90;;;;;;10450122;28;20136;-24
2023/05/19 15:47:42;;;;;;;3.95;1.50;;;27.40;51.70;;;;;;10441693;28;20724;-24
2023/05/19 15:52:44;;;;;;;7.18;2.38;;;27.40;51.30;;;;;;10442963;28;20080;-24
2023/05/19 15:57:45;;;;;;;9.63;2.28;;;27.70;52.80;;;;;;10426184;28;20809;-24
2023/05/19 16:02:48;;;;;;;7.05;2.10;;;27.60;51.20;;;;;;10441751;28;20049;-24
2023/05/19 16:07:50;;;;;;;5.13;1.75;;;27.80;53.10;;;;;;10446566;28;20084;-24
2023/05/19 16:12:52;;;;;;;4.00;1.80;;;28.00;51.80;;;;;;10434896;28;20048;-24
2023/05/19 16:17:56;;;;;;;5.43;1.90;;;28.10;53.30;;;;;;10430339;28;20119;-23
2023/05/19 16:22:58;;;;;;;7.35;1.98;;;28.30;53.30;;;;;;10445496;28;20091;-22
2023/05/19 16:27:59;;;;;;;4.63;1.67;;;28.30;52.90;;;;;;10436805;28;20152;-24
2023/05/19 16:33:03;;;;;;;6.72;2.05;;;28.20;53.40;;;;;;10451315;28;20044;-25
2023/05/19 16:38:05;;;;;;;3.88;1.52;;;28.20;54.90;;;;;;10445112;28;20142;-24
2023/05/19 16:43:06;;;;;;;4.07;1.80;;;28.30;52.50;;;;;;10443739;28;20090;-24
2023/05/19 16:48:10;;;;;;;5.97;1.60;;;28.20;53.10;;;;;;10440858;28;20049;-24
2023/05/19 16:53:11;;;;;;;4.03;1.77;;;28.30;54.10;;;;;;10439423;28;20452;-24
2023/05/19 16:58:13;;;;;;;7.03;2.10;;;28.40;52.00;;;;;;10447376;28;20536;-24
2023/05/19 17:03:16;;;;;;;8.32;2.40;;;28.00;53.90;;;;;;10437619;28;20139;-23
2023/05/19 17:08:18;;;;;;;5.95;2.50;;;28.10;53.80;;;;;;10435084;28;20119;-24
2023/05/19 17:13:20;;;;;;;8.80;2.60;;;28.30;56.20;;;;;;10454098;28;20500;-26
2023/05/19 17:18:23;;;;;;;12.80;2.42;;;28.20;56.50;;;;;;10438084;28;20051;-24
2023/05/19 17:23:25;;;;;;;10.18;2.75;;;28.40;57.10;;;;;;10447303;28;20085;-24
2023/05/19 17:28:27;;;;;;;11.95;3.88;;;28.30;54.50;;;;;;10438207;28;20080;-24
2023/05/19 17:33:32;;;;;;;5.88;2.67;;;27.40;55.10;;;;;;10299718;28;20049;-21
2023/05/19 17:38:34;;;;;;;8.32;2.85;;;27.90;59.00;;;;;;10423662;28;20115;-26
2023/05/19 17:43:36;;;;;;;9.48;2.47;;;27.80;54.40;;;;;;10437094;28;20144;-24
2023/05/19 17:48:39;;;;;;;7.57;2.92;;;27.70;58.70;;;;;;10379073;28;20055;-23
2023/05/19 17:53:41;;;;;;;5.43;2.50;;;27.40;59.70;;;;;;10451717;28;20564;-24
2023/05/19 17:58:45;;;;;;;6.05;2.80;;;26.60;61.00;;;;;;10458988;28;20119;-23
2023/05/19 18:03:49;;;;;;;7.28;2.83;;;27.20;63.50;;;;;;10443947;28;20103;-24
2023/05/19 18:08:52;;;;;;;9.93;2.10;;;27.00;64.50;;;;;;10457816;28;20056;-27
2023/05/19 18:13:54;;;;;;;9.90;2.95;;;26.50;57.20;;;;;;10447370;28;20139;-24
2023/05/19 18:18:57;;;;;;;9.50;2.65;;;26.90;59.70;;;;;;10449837;28;20472;-23
2023/05/19 18:24:01;;;;;;;11.23;2.80;;;27.30;59.40;;;;;;10411793;28;20065;-24
2023/05/19 18:29:03;;;;;;;8.65;3.08;;;26.90;63.90;;;;;;10449561;28;20060;-23
2023/05/19 18:34:06;;;;;;;4.82;2.88;;;26.80;62.50;;;;;;10460117;28;20053;-23
2023/05/19 18:39:09;;;;;;;8.57;2.35;;;27.20;61.30;;;;;;10446307;28;20095;-23
2023/05/19 18:44:11;;;;;;;8.05;2.58;;;27.60;58.60;;;;;;10447531;28;20639;-24
2023/05/19 18:49:14;;;;;;;3.72;1.80;;;27.30;54.70;;;;;;10456325;28;20041;-22
2023/05/19 18:54:16;;;;;;;4.05;1.55;;;27.30;56.40;;;;;;10434907;28;20389;-24
2023/05/19 18:59:18;;;;;;;4.93;1.70;;;27.60;57.60;;;;;;10436561;28;20148;-22
2023/05/19 19:04:21;;;;;;;4.93;2.03;;;27.80;57.50;;;;;;10447311;28;20152;-21
2023/05/19 19:09:23;;;;;;;7.15;2.05;;;26.90;52.90;;;;;;10452472;28;20055;-24
2023/05/19 19:14:25;;;;;;;10.85;2.60;;;27.50;57.10;;;;;;10447586;28;20049;-24
2023/05/19 19:19:29;;;;;;;6.75;2.05;;;27.10;57.30;;;;;;10447683;28;20140;-23
2023/05/19 19:24:31;;;;;;;6.13;2.00;;;27.00;58.30;;;;;;10445022;28;20519;-23
2023/05/19 19:29:32;;;;;;;13.68;2.60;;;27.30;57.90;;;;;;10444090;28;20135;-23
2023/05/19 19:34:36;;;;;;;7.88;2.20;;;26.70;58.20;;;;;;10442369;28;20053;-24
2023/05/19 19:39:38;;;;;;;6.57;2.13;;;27.20;58.00;;;;;;10447233;28;20037;-23
2023/05/19 19:44:40;;;;;;;2.83;1.33;;;27.10;58.20;;;;;;10449095;28;20034;-23
2023/05/19 19:49:44;;;;;;;6.30;1.80;;;27.10;57.60;;;;;;10452769;28;20084;-23
2023/05/19 19:54:46;;;;;;;5.65;1.67;;;27.30;56.20;;;;;;10437975;28;20141;-21
2023/05/19 19:59:53;;;;;;;5.40;1.70;;;27.40;56.00;;;;;;10458890;28;20049;-23
2023/05/19 20:04:56;;;;;;;3.63;1.73;;;27.30;56.10;;;;;;10449997;28;20045;-23
2023/05/19 20:09:58;;;;;;;5.95;1.52;;;27.30;56.20;;;;;;10452799;28;20068;-24
2023/05/19 20:15:00;;;;;;;5.82;1.65;;;27.20;56.20;;;;;;10456988;28;20147;-24
2023/05/19 20:20:08;;;;;;;4.22;1.58;;;27.20;56.30;;;;;;10436556;28;20041;-22
2023/05/19 20:25:10;;;;;;;3.55;1.70;;;27.20;56.50;;;;;;10437881;28;20049;-25
2023/05/19 20:30:12;;;;;;;3.90;1.52;;;27.00;56.80;;;;;;10440347;28;20052;-23
2023/05/19 20:35:16;;;;;;;3.05;1.35;;;27.00;56.90;;;;;;10450341;28;20141;-23
2023/05/19 20:40:18;;;;;;;5.55;1.80;;;26.70;57.80;;;;;;10462536;28;20079;-23
2023/05/19 20:45:20;;;;;;;6.38;2.22;;;26.60;58.50;;;;;;10446205;28;20074;-23
2023/05/19 20:50:23;;;;;;;4.95;1.70;;;26.50;58.50;;;;;;10437956;28;20080;-23
2023/05/19 20:55:25;;;;;;;4.38;2.33;;;26.10;59.30;;;;;;10440116;28;20049;-23
2023/05/19 21:00:27;;;;;;;6.20;2.50;;;26.20;59.90;;;;;;10461154;28;20091;-24
2023/05/19 21:05:30;;;;;;;4.40;2.10;;;26.00;60.60;;;;;;10455521;28;20044;-21
2023/05/19 21:10:32;;;;;;;7.97;2.10;;;26.10;60.10;;;;;;10454072;28;20135;-23
2023/05/19 21:15:34;;;;;;;6.22;2.38;;;26.40;59.00;;;;;;10469470;28;20482;-22
2023/05/19 21:20:37;;;;;;;7.03;1.60;;;26.30;57.80;;;;;;10451506;28;20049;-23
2023/05/19 21:25:39;;;;;;;3.35;1.60;;;26.30;58.30;;;;;;10452767;28;20141;-23
2023/05/19 21:30:42;;;;;;;3.22;1.30;;;26.30;58.00;;;;;;10449773;28;20147;-24
2023/05/19 21:35:46;;;;;;;3.63;1.40;;;26.30;57.90;;;;;;10448026;28;20053;-24
2023/05/19 21:40:48;;;;;;;3.40;1.58;;;26.10;58.20;;;;;;10449395;28;20037;-24
2023/05/19 21:45:50;;;;;;;7.22;1.60;;;26.20;58.00;;;;;;10426288;28;20081;-23
2023/05/19 21:50:54;;;;;;;4.13;1.40;;;26.00;58.10;;;;;;10450037;28;20107;-23
2023/05/19 21:55:56;;;;;;;6.63;1.85;;;26.10;57.90;;;;;;10438228;28;20053;-24
2023/05/19 22:00:59;;;;;;;5.38;1.48;;;26.00;58.00;;;;;;10455088;28;20136;-24
2023/05/19 22:06:02;;;;;;;4.55;1.52;;;25.90;58.00;;;;;;10446063;28;20086;-23
2023/05/19 22:11:04;;;;;;;5.30;1.25;;;25.90;57.90;;;;;;10448246;28;20602;-23
2023/05/19 22:16:06;;;;;;;6.53;1.33;;;25.80;58.10;;;;;;10446976;28;20049;-24
2023/05/19 22:21:09;;;;;;;5.57;1.20;;;25.80;58.20;;;;;;10437379;28;20151;-24
2023/05/19 22:26:11;;;;;;;6.90;1.20;;;25.70;58.30;;;;;;10442637;28;20063;-23
2023/05/19 22:31:13;;;;;;;4.22;1.20;;;25.60;58.20;;;;;;10442467;28;20564;-24
2023/05/19 22:36:16;;;;;;;2.80;1.40;;;25.50;58.50;;;;;;10449886;28;20106;-23
2023/05/19 22:41:18;;;;;;;3.03;1.45;;;25.50;58.50;;;;;;10446773;28;20521;-24
2023/05/19 22:46:20;;;;;;;1.77;1.25;;;25.50;58.60;;;;;;10451609;28;20131;-23
2023/05/19 22:51:23;;;;;;;4.18;1.50;;;25.30;58.90;;;;;;10459307;28;20044;-23
2023/05/19 22:56:25;;;;;;;2.78;1.30;;;25.40;58.60;;;;;;10437393;28;20041;-24
2023/05/19 23:01:27;;;;;;;3.75;1.02;;;25.40;58.70;;;;;;10440827;28;20490;-23
2023/05/19 23:06:31;;;;;;;2.25;1.05;;;25.30;58.60;;;;;;10448246;28;20141;-23
2023/05/19 23:11:33;;;;;;;3.33;1.20;;;25.30;58.80;;;;;;10443695;28;20099;-23
2023/05/19 23:16:34;;;;;;;1.98;1.00;;;25.20;58.80;;;;;;10440383;28;20129;-24
2023/05/19 23:21:38;;;;;;;4.32;0.98;;;25.20;59.00;;;;;;10441366;28;20088;-23
2023/05/19 23:26:41;;;;;;;3.15;1.08;;;25.10;58.90;;;;;;10453546;28;20046;-24
2023/05/19 23:31:43;;;;;;;4.53;1.20;;;25.10;59.10;;;;;;10456198;28;20087;-23
2023/05/19 23:36:46;;;;;;;2.05;0.93;;;25.10;59.10;;;;;;10460158;28;20132;-24
2023/05/19 23:41:48;;;;;;;3.50;0.80;;;25.00;59.10;;;;;;10452898;28;20139;-24
2023/05/19 23:46:50;;;;;;;4.82;1.20;;;24.90;59.10;;;;;;10459607;28;20091;-24
2023/05/19 23:51:53;;;;;;;2.58;1.05;;;24.90;59.70;;;;;;10445242;28;20076;-24
2023/05/19 23:56:55;;;;;;;5.28;1.35;;;24.80;59.40;;;;;;10455186;28;20144;-23
